Time;durP1;ratioP1;P1;durP2;ratioP2;P2;SDS_P1;SDS_P2;PMS_P1;PMS_P2;Temp;Humidity;BMP_temperature;BMP_pressure;BME280_temperature;BME280_humidity;BME280_pressure;Samples;Min_cycle;Max_cycle;Signal;HPM_P1;HPM_P2
2023/12/16 00:00:28;;;;;;;0.00;0.00;;;7.10;99.90;;;;;;6189757;23;20466;-70
2023/12/16 00:02:54;;;;;;;0.57;0.57;;;7.10;99.90;;;;;;6216697;23;20075;-73
2023/12/16 00:09:00;;;;;;;0.10;0.10;;;7.10;99.90;;;;;;6216412;23;20012;-71
2023/12/16 00:18:49;;;;;;;1.45;0.68;;;7.10;99.90;;;;;;6216338;23;20008;-72
2023/12/16 00:21:14;;;;;;;1.25;1.23;;;7.10;99.90;;;;;;6189620;23;20017;-72
2023/12/16 00:23:40;;;;;;;0.08;0.08;;;7.10;99.90;;;;;;6189221;23;20437;-72
2023/12/16 00:26:05;;;;;;;0.25;0.25;;;7.10;99.90;;;;;;6189620;23;20340;-71
2023/12/16 00:28:31;;;;;;;0.10;0.10;;;7.10;99.90;;;;;;6189608;23;20486;-71
2023/12/16 00:30:57;;;;;;;2.10;0.22;;;7.10;99.90;;;;;;6216378;23;20486;-71
2023/12/16 00:37:08;;;;;;;6.13;1.55;;;7.10;99.90;;;;;;6216230;23;20051;-71
2023/12/16 00:43:14;;;;;;;0.45;0.45;;;7.00;99.90;;;;;;6215993;23;20465;-71
2023/12/16 00:45:40;;;;;;;0.75;0.57;;;7.00;99.90;;;;;;6189310;23;20017;-71
2023/12/16 00:48:05;;;;;;;0.10;0.10;;;6.90;99.90;;;;;;6189391;23;20016;-71
2023/12/16 00:50:31;;;;;;;0.20;0.20;;;6.90;99.90;;;;;;6189555;23;20067;-72
2023/12/16 00:56:37;;;;;;;0.20;0.20;;;6.70;99.90;;;;;;6215944;23;20057;-71
2023/12/16 01:02:44;;;;;;;0.35;0.35;;;6.60;99.90;;;;;;6216095;23;20059;-71
2023/12/16 01:08:50;;;;;;;0.20;0.20;;;6.60;99.90;;;;;;6216160;23;20011;-71
2023/12/16 01:14:56;;;;;;;0.85;0.82;;;6.40;99.90;;;;;;6215964;23;20028;-71
2023/12/16 01:21:05;;;;;;;0.10;0.10;;;6.20;99.90;;;;;;6216039;23;20031;-72
2023/12/16 01:27:12;;;;;;;0.17;0.17;;;6.10;99.90;;;;;;6216028;23;20011;-71
2023/12/16 01:29:37;;;;;;;8.85;1.58;;;6.00;99.90;;;;;;6189226;23;20005;-71
2023/12/16 01:35:44;;;;;;;0.10;0.10;;;5.90;99.90;;;;;;6217008;23;20051;-71
2023/12/16 01:38:09;;;;;;;0.30;0.30;;;5.90;99.90;;;;;;6191104;23;20012;-70
2023/12/16 01:40:36;;;;;;;9.32;0.63;;;5.90;99.90;;;;;;6191115;23;20012;-72
2023/12/16 01:43:06;;;;;;;0.45;0.38;;;5.80;99.90;;;;;;6217562;23;20013;-72
2023/12/16 01:45:31;;;;;;;0.38;0.38;;;5.80;99.90;;;;;;6191096;23;20017;-71
2023/12/16 01:47:59;;;;;;;0.08;0.08;;;5.80;99.90;;;;;;6191017;23;20023;-71
2023/12/16 01:54:08;;;;;;;2.38;0.65;;;5.80;99.90;;;;;;6217684;23;20008;-70
2023/12/16 01:56:34;;;;;;;0.55;0.55;;;5.80;99.90;;;;;;6190877;23;20055;-71
2023/12/16 01:59:00;;;;;;;0.25;0.25;;;5.80;99.90;;;;;;6217680;23;20051;-71
2023/12/16 02:01:26;;;;;;;0.35;0.35;;;5.80;99.90;;;;;;6190635;23;20008;-71
2023/12/16 02:03:53;;;;;;;0.17;0.17;;;5.80;99.90;;;;;;6190781;23;20013;-71
2023/12/16 02:06:20;;;;;;;0.10;0.10;;;5.80;99.90;;;;;;6190701;23;20463;-73
2023/12/16 02:08:45;;;;;;;0.32;0.32;;;5.80;99.90;;;;;;6190770;23;20044;-70
2023/12/16 02:14:52;;;;;;;0.20;0.20;;;5.80;99.90;;;;;;6217374;23;20027;-70
2023/12/16 02:17:18;;;;;;;0.15;0.15;;;5.80;99.90;;;;;;6217449;23;20484;-71
2023/12/16 02:19:46;;;;;;;0.10;0.10;;;5.80;99.90;;;;;;6190158;23;20059;-70
2023/12/16 02:22:11;;;;;;;0.10;0.10;;;5.70;99.90;;;;;;6190538;23;20336;-71
2023/12/16 02:24:38;;;;;;;1.02;0.57;;;5.70;99.90;;;;;;6190521;23;20012;-71
2023/12/16 02:27:56;;;;;;;0.50;0.50;;;5.70;99.90;;;;;;6190018;23;20016;-70
2023/12/16 02:30:24;;;;;;;0.15;0.15;;;5.70;99.90;;;;;;6216733;23;20036;-70
2023/12/16 02:32:49;;;;;;;0.80;0.70;;;5.70;99.90;;;;;;6189799;23;20012;-69
2023/12/16 02:35:15;;;;;;;2.75;0.22;;;5.70;99.90;;;;;;6217103;23;20023;-71
2023/12/16 02:41:23;;;;;;;0.40;0.40;;;5.80;99.90;;;;;;6216879;23;20039;-73
2023/12/16 02:43:49;;;;;;;0.50;0.50;;;5.80;99.90;;;;;;6190133;23;20024;-73
2023/12/16 02:49:55;;;;;;;0.30;0.30;;;5.80;99.90;;;;;;6216966;23;20104;-73
2023/12/16 02:56:01;;;;;;;0.25;0.25;;;5.80;99.90;;;;;;6216791;23;20027;-74
2023/12/16 03:02:08;;;;;;;0.10;0.10;;;5.80;99.90;;;;;;6216967;23;20058;-72
2023/12/16 03:04:33;;;;;;;0.52;0.45;;;5.80;99.90;;;;;;6216650;23;20017;-72
2023/12/16 03:06:59;;;;;;;0.22;0.20;;;5.80;99.90;;;;;;6189643;23;20009;-71
2023/12/16 03:10:04;;;;;;;1.65;0.40;;;5.80;99.90;;;;;;6216115;23;20036;-70
2023/12/16 03:12:30;;;;;;;0.82;0.57;;;5.80;99.90;;;;;;6188729;23;20051;-74
2023/12/16 03:14:55;;;;;;;0.10;0.10;;;5.80;99.90;;;;;;6188542;23;20340;-75
2023/12/16 03:17:46;;;;;;;3.00;0.52;;;5.80;99.90;;;;;;6189680;23;20009;-73
2023/12/16 03:20:11;;;;;;;0.50;0.50;;;5.80;99.90;;;;;;6190154;23;20012;-75
2023/12/16 03:23:02;;;;;;;0.28;0.22;;;5.80;99.90;;;;;;6215368;23;20065;-73
2023/12/16 03:25:27;;;;;;;0.30;0.30;;;5.80;99.90;;;;;;6214608;23;20013;-73
2023/12/16 03:27:54;;;;;;;0.10;0.10;;;5.80;99.90;;;;;;6189749;23;20012;-73
2023/12/16 03:34:00;;;;;;;0.70;0.70;;;5.80;99.90;;;;;;6216662;23;20047;-71
2023/12/16 03:40:08;;;;;;;0.10;0.08;;;5.80;99.90;;;;;;6216609;23;20016;-73
2023/12/16 03:42:44;;;;;;;0.47;0.47;;;5.80;99.90;;;;;;6189623;23;20046;-70
2023/12/16 03:45:09;;;;;;;0.75;0.75;;;5.80;99.90;;;;;;6188743;23;20012;-70
2023/12/16 03:47:35;;;;;;;0.38;0.20;;;5.90;99.90;;;;;;6164486;23;20019;-72
2023/12/16 03:50:00;;;;;;;1.75;0.43;;;5.90;99.90;;;;;;6189613;23;20024;-71
2023/12/16 03:52:26;;;;;;;0.32;0.30;;;5.90;99.90;;;;;;6165053;23;20018;-73
2023/12/16 03:54:52;;;;;;;14.00;0.50;;;5.90;99.90;;;;;;6215890;23;20087;-75
2023/12/16 04:00:58;;;;;;;0.52;0.52;;;6.00;99.90;;;;;;6214724;23;20010;-73
2023/12/16 04:03:23;;;;;;;0.25;0.20;;;6.00;99.90;;;;;;6187846;23;20099;-71
2023/12/16 04:05:49;;;;;;;0.20;0.20;;;6.00;99.90;;;;;;6164244;23;20047;-71
2023/12/16 04:08:15;;;;;;;1.23;0.35;;;6.00;99.90;;;;;;6188311;23;20017;-70
2023/12/16 04:10:40;;;;;;;0.60;0.60;;;6.00;99.90;;;;;;6216128;23;20024;-70
2023/12/16 04:13:06;;;;;;;0.10;0.10;;;6.00;99.90;;;;;;6215826;23;20095;-70
2023/12/16 04:15:52;;;;;;;0.10;0.10;;;6.00;99.90;;;;;;6214982;23;20088;-68
2023/12/16 04:18:18;;;;;;;2.05;0.63;;;6.00;99.90;;;;;;6188661;23;20017;-72
2023/12/16 04:20:43;;;;;;;0.98;0.25;;;6.00;99.90;;;;;;6215516;23;20016;-70
2023/12/16 04:23:15;;;;;;;0.10;0.10;;;6.00;99.90;;;;;;6189144;23;20498;-71
2023/12/16 04:25:41;;;;;;;0.57;0.50;;;6.00;99.90;;;;;;6215832;23;20079;-71
2023/12/16 04:28:06;;;;;;;0.45;0.38;;;5.90;99.90;;;;;;6215524;23;20388;-71
2023/12/16 04:30:32;;;;;;;0.20;0.20;;;5.90;99.90;;;;;;6188748;23;20020;-70
2023/12/16 04:32:59;;;;;;;21.83;0.65;;;5.90;99.90;;;;;;6189058;23;20513;-72
2023/12/16 04:35:25;;;;;;;9.10;1.40;;;5.90;99.90;;;;;;6215369;23;20067;-73
2023/12/16 04:37:50;;;;;;;0.20;0.20;;;5.90;99.90;;;;;;6189499;23;20374;-73
2023/12/16 04:40:16;;;;;;;1.27;0.30;;;5.80;99.90;;;;;;6216191;23;20418;-70
2023/12/16 04:46:22;;;;;;;0.10;0.10;;;5.80;99.90;;;;;;6216207;23;20335;-70
2023/12/16 04:48:48;;;;;;;0.98;0.20;;;5.80;99.90;;;;;;6189005;23;20008;-71
2023/12/16 04:51:14;;;;;;;1.75;0.47;;;5.70;99.90;;;;;;6216297;23;20008;-70
2023/12/16 04:53:40;;;;;;;0.25;0.25;;;5.70;99.90;;;;;;6163616;23;20091;-71
2023/12/16 04:56:06;;;;;;;0.57;0.57;;;5.70;99.90;;;;;;6188822;23;20040;-72
2023/12/16 05:02:19;;;;;;;0.90;0.30;;;5.60;99.90;;;;;;6215698;23;20324;-70
2023/12/16 05:08:26;;;;;;;0.10;0.10;;;5.60;99.90;;;;;;6215387;23;20011;-72
2023/12/16 05:11:26;;;;;;;0.68;0.68;;;5.60;99.90;;;;;;6189084;23;20504;-74
2023/12/16 05:13:52;;;;;;;0.20;0.20;;;5.60;99.90;;;;;;6190679;23;20013;-71
2023/12/16 05:16:18;;;;;;;8.00;1.10;;;5.60;99.90;;;;;;6217002;23;20017;-76
2023/12/16 05:18:44;;;;;;;0.35;0.35;;;5.60;99.90;;;;;;6164204;23;20359;-73
2023/12/16 05:21:10;;;;;;;0.55;0.55;;;5.70;99.90;;;;;;6216323;23;20020;-71
2023/12/16 05:23:35;;;;;;;7.55;1.13;;;5.70;99.90;;;;;;6186825;23;20048;-73
2023/12/16 05:26:01;;;;;;;1.55;0.88;;;5.70;99.90;;;;;;6188374;23;20048;-74
2023/12/16 05:28:26;;;;;;;0.10;0.10;;;5.70;99.90;;;;;;6188102;23;20020;-72
2023/12/16 05:30:52;;;;;;;0.38;0.38;;;5.70;99.90;;;;;;6213515;23;20023;-74
2023/12/16 05:33:17;;;;;;;0.10;0.10;;;5.70;99.90;;;;;;6215927;23;20012;-74
2023/12/16 05:35:43;;;;;;;0.75;0.65;;;5.70;99.90;;;;;;6187621;23;20013;-75
2023/12/16 05:38:08;;;;;;;4.75;0.50;;;5.70;99.90;;;;;;6187308;23;20040;-75
2023/12/16 05:40:57;;;;;;;1.05;0.80;;;5.80;99.90;;;;;;6215639;23;20380;-72
2023/12/16 05:43:22;;;;;;;0.50;0.50;;;5.80;99.90;;;;;;6189221;23;20008;-75
2023/12/16 05:45:48;;;;;;;0.95;0.93;;;5.80;99.90;;;;;;6186837;23;20343;-72
2023/12/16 05:48:14;;;;;;;1.02;0.57;;;5.80;99.90;;;;;;6217456;23;20472;-73
2023/12/16 05:50:39;;;;;;;3.33;0.38;;;5.70;99.90;;;;;;6189023;23;20444;-73
2023/12/16 05:53:06;;;;;;;0.85;0.20;;;5.80;99.90;;;;;;6189400;23;20062;-73
2023/12/16 05:59:25;;;;;;;0.65;0.57;;;5.70;99.90;;;;;;6216559;23;20086;-70
2023/12/16 06:01:51;;;;;;;1.27;0.63;;;5.70;99.90;;;;;;6165218;23;20431;-75
2023/12/16 06:04:16;;;;;;;0.30;0.30;;;5.70;99.90;;;;;;6217390;23;20017;-75
2023/12/16 06:06:53;;;;;;;0.47;0.47;;;5.70;99.90;;;;;;6190565;23;20017;-71
2023/12/16 06:09:19;;;;;;;0.30;0.30;;;5.60;99.90;;;;;;6189423;23;20402;-71
2023/12/16 06:12:22;;;;;;;0.40;0.40;;;5.70;99.90;;;;;;6190622;23;20017;-71
2023/12/16 06:14:47;;;;;;;0.30;0.30;;;5.60;99.90;;;;;;6189342;23;20035;-73
2023/12/16 06:17:13;;;;;;;0.25;0.25;;;5.70;99.90;;;;;;6189948;23;20009;-72
2023/12/16 06:19:38;;;;;;;0.30;0.30;;;5.60;99.90;;;;;;6189629;23;20314;-71
2023/12/16 06:22:04;;;;;;;0.50;0.30;;;5.60;99.90;;;;;;6163585;23;20067;-73
2023/12/16 06:25:17;;;;;;;1.98;1.15;;;5.60;99.90;;;;;;6189408;23;20008;-73
2023/12/16 06:27:44;;;;;;;6.97;1.85;;;5.60;99.90;;;;;;6189205;23;20459;-73
2023/12/16 06:30:22;;;;;;;0.52;0.52;;;5.60;99.90;;;;;;6189508;23;20386;-74
2023/12/16 06:32:48;;;;;;;25.02;1.05;;;5.60;99.90;;;;;;6188380;23;20436;-74
2023/12/16 06:35:18;;;;;;;9.50;0.70;;;5.60;99.90;;;;;;6190170;23;20024;-74
2023/12/16 06:37:43;;;;;;;0.35;0.35;;;5.60;99.90;;;;;;6189837;23;20059;-73
2023/12/16 06:40:09;;;;;;;1.25;0.80;;;5.50;99.90;;;;;;6190139;23;20013;-72
2023/12/16 06:42:34;;;;;;;2.05;1.85;;;5.60;99.90;;;;;;6190038;23;20428;-71
2023/12/16 06:45:00;;;;;;;0.30;0.30;;;5.50;99.90;;;;;;6189908;23;20019;-70
2023/12/16 06:47:25;;;;;;;1.27;0.93;;;5.60;99.90;;;;;;6190395;23;20012;-69
2023/12/16 06:49:52;;;;;;;12.43;0.80;;;5.50;99.90;;;;;;6189589;23;20355;-71
2023/12/16 06:52:17;;;;;;;1.20;0.43;;;5.50;99.90;;;;;;6190141;23;20396;-71
2023/12/16 06:54:43;;;;;;;1.60;0.65;;;5.60;99.90;;;;;;6215622;23;20039;-71
2023/12/16 07:00:49;;;;;;;2.85;0.40;;;5.50;99.90;;;;;;6216748;23;20057;-70
2023/12/16 07:03:15;;;;;;;0.40;0.40;;;5.50;99.90;;;;;;6189691;23;20095;-71
2023/12/16 07:05:41;;;;;;;1.27;0.55;;;5.50;99.90;;;;;;6189681;23;20023;-74
2023/12/16 07:08:06;;;;;;;0.35;0.35;;;5.60;99.90;;;;;;6189923;23;20008;-71
2023/12/16 07:10:32;;;;;;;8.10;1.08;;;5.60;99.90;;;;;;6189705;23;20016;-73
2023/12/16 07:12:57;;;;;;;0.30;0.30;;;5.60;99.90;;;;;;6189266;23;20016;-74
2023/12/16 07:15:23;;;;;;;0.20;0.20;;;5.60;99.90;;;;;;6189620;23;20020;-71
2023/12/16 07:17:49;;;;;;;0.30;0.30;;;5.60;99.90;;;;;;6189828;23;20091;-74
2023/12/16 07:20:14;;;;;;;0.52;0.43;;;5.60;99.90;;;;;;6216821;23;20019;-70
2023/12/16 07:26:21;;;;;;;0.77;0.77;;;5.60;99.90;;;;;;6216774;23;20011;-71
2023/12/16 07:32:27;;;;;;;0.20;0.20;;;5.70;99.90;;;;;;6216409;23;20053;-71
2023/12/16 07:34:52;;;;;;;4.68;0.70;;;5.80;99.90;;;;;;6189536;23;20020;-71
2023/12/16 07:37:21;;;;;;;1.02;0.45;;;5.80;99.90;;;;;;6189721;23;20051;-71
2023/12/16 07:39:47;;;;;;;0.80;0.47;;;5.90;99.90;;;;;;6189507;23;20020;-72
2023/12/16 07:42:13;;;;;;;9.82;1.15;;;5.90;99.90;;;;;;6189676;23;20332;-72
2023/12/16 07:44:38;;;;;;;0.50;0.50;;;5.90;99.90;;;;;;6189253;23;20083;-71
2023/12/16 07:47:04;;;;;;;1.50;0.93;;;5.90;99.90;;;;;;6165003;23;20527;-73
2023/12/16 07:49:29;;;;;;;0.68;0.40;;;6.00;99.90;;;;;;6187287;23;20016;-73
2023/12/16 07:51:57;;;;;;;4.55;1.85;;;6.00;99.90;;;;;;6216131;23;20009;-72
2023/12/16 07:54:23;;;;;;;0.63;0.52;;;6.00;99.90;;;;;;6188401;23;20012;-72
2023/12/16 07:56:48;;;;;;;3.83;0.77;;;6.10;99.90;;;;;;6188105;23;20012;-71
2023/12/16 07:59:14;;;;;;;6.68;1.40;;;6.20;99.90;;;;;;6215705;23;20008;-71
2023/12/16 08:02:25;;;;;;;0.40;0.40;;;6.10;99.90;;;;;;6189114;23;20020;-71
2023/12/16 08:04:53;;;;;;;0.52;0.40;;;6.20;99.90;;;;;;6188230;23;20016;-70
2023/12/16 08:07:20;;;;;;;0.98;0.98;;;6.30;99.90;;;;;;6215854;23;20020;-70
2023/12/16 08:09:46;;;;;;;0.32;0.30;;;6.30;99.90;;;;;;6188055;23;20452;-70
2023/12/16 08:12:11;;;;;;;2.95;0.75;;;6.30;99.90;;;;;;6188433;23;20013;-71
2023/12/16 08:15:18;;;;;;;1.95;1.25;;;6.40;99.90;;;;;;6163763;23;20028;-70
2023/12/16 08:17:43;;;;;;;0.77;0.35;;;6.40;99.90;;;;;;6188984;23;20445;-71
2023/12/16 08:20:28;;;;;;;1.30;0.93;;;6.40;99.90;;;;;;6163253;23;20009;-71
2023/12/16 08:22:53;;;;;;;1.98;0.20;;;6.40;99.90;;;;;;6188974;23;20313;-71
2023/12/16 08:25:19;;;;;;;0.38;0.32;;;6.50;99.90;;;;;;6188734;23;20062;-73
2023/12/16 08:27:44;;;;;;;0.57;0.50;;;6.50;99.90;;;;;;6164428;23;20044;-72
2023/12/16 08:30:11;;;;;;;1.17;0.85;;;6.50;99.90;;;;;;6214803;23;20023;-69
2023/12/16 08:32:36;;;;;;;1.20;0.68;;;6.60;99.90;;;;;;6215039;23;20020;-71
2023/12/16 08:35:03;;;;;;;1.65;0.95;;;6.60;99.90;;;;;;6214822;23;20355;-69
2023/12/16 08:37:28;;;;;;;0.75;0.43;;;6.60;99.90;;;;;;6215463;23;20020;-72
2023/12/16 08:43:35;;;;;;;0.50;0.50;;;6.70;99.90;;;;;;6213259;23;20039;-70
2023/12/16 08:46:01;;;;;;;2.03;0.55;;;6.70;99.90;;;;;;6191144;23;20336;-70
2023/12/16 08:48:27;;;;;;;0.98;0.35;;;6.80;99.90;;;;;;6189371;23;20452;-70
2023/12/16 08:54:34;;;;;;;1.35;0.60;;;6.80;99.90;;;;;;6218569;23;20027;-71
2023/12/16 08:57:01;;;;;;;0.80;0.80;;;6.90;99.90;;;;;;6190645;23;20496;-72
2023/12/16 08:59:34;;;;;;;0.32;0.32;;;6.90;99.90;;;;;;6166660;23;20031;-72
2023/12/16 09:02:00;;;;;;;0.47;0.40;;;6.90;99.90;;;;;;6216592;23;20016;-71
2023/12/16 09:04:25;;;;;;;1.08;0.43;;;6.90;99.90;;;;;;6216891;23;20012;-72
2023/12/16 09:06:51;;;;;;;0.75;0.75;;;7.00;99.90;;;;;;6189549;23;20020;-72
2023/12/16 09:09:16;;;;;;;2.17;1.98;;;7.00;99.90;;;;;;6217162;23;20031;-74
2023/12/16 09:11:44;;;;;;;4.00;0.38;;;7.10;99.90;;;;;;6187932;23;20444;-73
2023/12/16 09:14:10;;;;;;;0.10;0.10;;;7.10;99.90;;;;;;6189855;23;20099;-73
2023/12/16 09:16:35;;;;;;;0.40;0.40;;;7.10;99.90;;;;;;6216452;23;20393;-70
2023/12/16 09:19:03;;;;;;;12.23;0.57;;;7.20;99.90;;;;;;6190025;23;20012;-73
2023/12/16 09:21:29;;;;;;;0.60;0.60;;;7.20;99.90;;;;;;6190538;23;20435;-74
2023/12/16 09:23:55;;;;;;;5.28;0.80;;;7.20;99.90;;;;;;6190504;23;20383;-72
2023/12/16 09:26:23;;;;;;;2.80;0.80;;;7.30;99.90;;;;;;6164876;23;20017;-74
2023/12/16 09:28:49;;;;;;;0.85;0.85;;;7.30;99.90;;;;;;6191419;23;20016;-73
2023/12/16 09:31:16;;;;;;;0.85;0.85;;;7.30;99.90;;;;;;6215171;23;20097;-72
2023/12/16 09:33:43;;;;;;;9.43;0.50;;;7.30;99.90;;;;;;6186500;23;20097;-74
2023/12/16 09:36:13;;;;;;;0.68;0.52;;;7.30;99.90;;;;;;6213361;23;20016;-73
2023/12/16 09:38:41;;;;;;;0.20;0.20;;;7.30;99.90;;;;;;6187571;23;20063;-73
2023/12/16 09:41:20;;;;;;;5.78;0.65;;;7.30;99.90;;;;;;6186200;23;20051;-70
2023/12/16 09:43:51;;;;;;;0.30;0.30;;;7.30;99.90;;;;;;6214826;23;20490;-71
2023/12/16 09:46:27;;;;;;;0.15;0.15;;;7.40;99.90;;;;;;6186319;23;20016;-72
2023/12/16 09:48:54;;;;;;;1.65;1.55;;;7.30;99.90;;;;;;6187806;23;20016;-73
2023/12/16 09:51:23;;;;;;;1.75;0.85;;;7.30;99.90;;;;;;6188497;23;20078;-74
2023/12/16 09:53:49;;;;;;;0.30;0.20;;;7.40;99.90;;;;;;6188437;23;20032;-71
2023/12/16 09:56:16;;;;;;;0.57;0.57;;;7.30;99.90;;;;;;6189134;23;20035;-75
2023/12/16 09:58:45;;;;;;;0.10;0.10;;;7.30;99.90;;;;;;6214596;23;20087;-72
2023/12/16 10:01:11;;;;;;;0.88;0.45;;;7.40;99.90;;;;;;6187604;23;20456;-72
2023/12/16 10:03:37;;;;;;;1.17;1.02;;;7.30;99.90;;;;;;6188880;23;20012;-71
2023/12/16 10:06:05;;;;;;;1.98;1.05;;;7.30;99.90;;;;;;6188851;23;20341;-73
2023/12/16 10:08:31;;;;;;;0.80;0.43;;;7.30;99.90;;;;;;6214640;23;20013;-75
2023/12/16 10:10:58;;;;;;;0.52;0.52;;;7.30;99.90;;;;;;6187718;23;20066;-71
2023/12/16 10:13:25;;;;;;;0.43;0.43;;;7.30;99.90;;;;;;6187454;23;20021;-74
2023/12/16 10:15:51;;;;;;;1.15;1.15;;;7.30;99.90;;;;;;6187424;23;20404;-72
2023/12/16 10:18:17;;;;;;;0.57;0.57;;;7.30;99.90;;;;;;6189095;23;20023;-71
2023/12/16 10:20:43;;;;;;;0.85;0.70;;;7.30;99.90;;;;;;6215271;23;20076;-72
2023/12/16 10:23:10;;;;;;;0.85;0.45;;;7.30;99.90;;;;;;6189383;23;20071;-70
2023/12/16 10:25:35;;;;;;;2.60;0.68;;;7.30;99.90;;;;;;6185055;23;20019;-74
2023/12/16 10:28:02;;;;;;;0.35;0.35;;;7.30;99.90;;;;;;6185295;23;20012;-74
2023/12/16 10:30:28;;;;;;;0.43;0.43;;;7.30;99.90;;;;;;6187833;23;20021;-71
2023/12/16 10:32:57;;;;;;;27.48;1.05;;;7.30;99.90;;;;;;6212324;23;20063;-74
2023/12/16 10:35:23;;;;;;;0.40;0.40;;;7.30;99.90;;;;;;6180846;23;20009;-72
2023/12/16 10:37:50;;;;;;;0.52;0.52;;;7.30;99.90;;;;;;6184699;23;20340;-73
2023/12/16 10:40:17;;;;;;;1.15;0.38;;;7.30;99.90;;;;;;6187176;23;20008;-72
2023/12/16 10:42:43;;;;;;;1.40;1.25;;;7.30;99.90;;;;;;6185776;23;20012;-73
2023/12/16 10:45:10;;;;;;;1.00;0.70;;;7.30;99.90;;;;;;6186936;23;20013;-70
2023/12/16 10:47:37;;;;;;;1.83;1.35;;;7.30;99.90;;;;;;6186910;23;20040;-71
2023/12/16 10:50:03;;;;;;;5.00;1.05;;;7.40;99.90;;;;;;6187713;23;20086;-70
2023/12/16 10:52:42;;;;;;;7.88;0.82;;;7.40;99.90;;;;;;6162423;23;20016;-73
2023/12/16 10:55:27;;;;;;;0.57;0.57;;;7.40;99.90;;;;;;6188133;23;20016;-72
2023/12/16 10:57:55;;;;;;;1.17;0.60;;;7.40;99.90;;;;;;6183952;23;20016;-72
2023/12/16 11:00:23;;;;;;;0.40;0.40;;;7.40;99.90;;;;;;6188303;23;20008;-70
2023/12/16 11:03:12;;;;;;;2.47;1.15;;;7.40;99.90;;;;;;6160870;23;20051;-70
2023/12/16 11:05:46;;;;;;;1.25;0.50;;;7.40;99.90;;;;;;6188241;23;20024;-71
2023/12/16 11:08:12;;;;;;;1.13;0.88;;;7.40;99.90;;;;;;6185021;23;20013;-77
2023/12/16 11:10:38;;;;;;;1.77;1.58;;;7.50;99.90;;;;;;6188592;23;20027;-80
2023/12/16 11:13:04;;;;;;;0.85;0.85;;;7.50;99.90;;;;;;6188538;23;20012;-71
2023/12/16 11:15:32;;;;;;;11.15;0.95;;;7.40;99.90;;;;;;6212536;23;20083;-70
2023/12/16 11:18:06;;;;;;;1.67;1.58;;;7.50;99.90;;;;;;6186196;23;20020;-72
2023/12/16 11:20:39;;;;;;;1.65;0.80;;;7.50;99.90;;;;;;6186133;23;20443;-71
2023/12/16 11:23:04;;;;;;;0.52;0.35;;;7.50;99.90;;;;;;6213727;23;20055;-70
2023/12/16 11:25:36;;;;;;;0.75;0.75;;;7.50;99.90;;;;;;6187876;23;20376;-70
2023/12/16 11:28:02;;;;;;;2.03;1.05;;;7.60;99.90;;;;;;6213260;23;20017;-70
2023/12/16 11:30:34;;;;;;;1.27;1.20;;;7.50;99.90;;;;;;6187567;23;20046;-71
2023/12/16 11:33:00;;;;;;;2.35;0.90;;;7.60;99.90;;;;;;6185855;23;20436;-69
2023/12/16 11:35:48;;;;;;;2.08;1.40;;;7.60;99.90;;;;;;6186876;23;20013;-70
2023/12/16 11:38:36;;;;;;;1.25;0.52;;;7.60;99.90;;;;;;6183658;23;20019;-70
2023/12/16 11:41:02;;;;;;;0.50;0.50;;;7.70;99.90;;;;;;6187089;23;20013;-70
2023/12/16 11:43:48;;;;;;;1.67;0.93;;;7.70;99.90;;;;;;6186601;23;20332;-69
2023/12/16 11:46:34;;;;;;;1.38;1.27;;;7.70;99.90;;;;;;6187352;23;20028;-72
2023/12/16 11:49:05;;;;;;;1.45;1.35;;;7.70;99.90;;;;;;6186662;23;20016;-69
2023/12/16 11:51:35;;;;;;;2.67;1.17;;;7.70;99.90;;;;;;6186401;23;20048;-72
2023/12/16 11:54:01;;;;;;;3.83;1.40;;;7.70;99.90;;;;;;6213800;23;20012;-72
2023/12/16 11:56:27;;;;;;;1.50;0.73;;;7.70;99.90;;;;;;6185785;23;20015;-70
2023/12/16 11:58:59;;;;;;;1.35;0.32;;;7.70;99.90;;;;;;6211375;23;20012;-70
2023/12/16 12:01:26;;;;;;;2.17;1.67;;;7.70;99.90;;;;;;6186696;23;20004;-70
2023/12/16 12:03:52;;;;;;;3.22;0.63;;;7.70;99.90;;;;;;6187270;23;20013;-70
2023/12/16 12:06:18;;;;;;;2.10;1.58;;;7.80;99.90;;;;;;6215229;23;20012;-69
2023/12/16 12:08:46;;;;;;;0.65;0.65;;;7.80;99.90;;;;;;6186744;23;20020;-70
2023/12/16 12:11:11;;;;;;;1.45;1.35;;;7.80;99.90;;;;;;6188031;23;20447;-70
2023/12/16 12:13:37;;;;;;;4.50;1.17;;;7.80;99.90;;;;;;6161304;23;20024;-69
2023/12/16 12:16:03;;;;;;;5.47;1.85;;;7.90;99.90;;;;;;6186133;23;20024;-70
2023/12/16 12:18:29;;;;;;;4.55;1.48;;;7.90;99.90;;;;;;6159795;23;20012;-69
2023/12/16 12:20:55;;;;;;;2.90;0.98;;;7.90;99.90;;;;;;6186871;23;20016;-69
2023/12/16 12:23:20;;;;;;;5.85;1.50;;;7.90;99.90;;;;;;6212817;23;20017;-71
2023/12/16 12:25:55;;;;;;;4.13;1.58;;;7.90;99.90;;;;;;6186710;23;20016;-70
2023/12/16 12:28:20;;;;;;;3.13;1.15;;;7.90;99.90;;;;;;6186287;23;20013;-69
2023/12/16 12:30:46;;;;;;;1.15;1.00;;;8.00;99.90;;;;;;6186768;23;20325;-70
2023/12/16 12:33:12;;;;;;;1.33;1.23;;;8.00;99.90;;;;;;6213734;23;20057;-70
2023/12/16 12:35:38;;;;;;;2.10;1.10;;;8.10;99.90;;;;;;6185134;23;20025;-69
2023/12/16 12:38:04;;;;;;;1.33;0.57;;;8.10;99.90;;;;;;6185102;23;20031;-70
2023/12/16 12:40:30;;;;;;;2.88;1.08;;;8.20;99.90;;;;;;6209532;23;20009;-69
2023/12/16 12:42:57;;;;;;;1.42;0.32;;;8.30;99.90;;;;;;6185908;23;20019;-71
2023/12/16 12:45:31;;;;;;;1.02;0.57;;;8.30;99.90;;;;;;6213079;23;20017;-68
2023/12/16 12:48:15;;;;;;;5.35;1.27;;;8.40;99.90;;;;;;6161100;23;20019;-70
2023/12/16 12:50:43;;;;;;;1.13;1.02;;;8.40;99.90;;;;;;6184343;23;20013;-69
2023/12/16 12:53:16;;;;;;;1.67;1.15;;;8.40;99.90;;;;;;6213848;23;20012;-69
2023/12/16 12:55:43;;;;;;;4.32;1.73;;;8.40;99.90;;;;;;6186726;23;20126;-70
2023/12/16 12:58:09;;;;;;;0.52;0.52;;;8.40;99.90;;;;;;6186220;23;20016;-69
2023/12/16 13:00:36;;;;;;;6.00;3.20;;;8.50;99.90;;;;;;6187425;23;20009;-69
2023/12/16 13:03:01;;;;;;;3.95;1.13;;;8.50;99.90;;;;;;6185811;23;20013;-69
2023/12/16 13:05:27;;;;;;;1.67;1.00;;;8.50;99.90;;;;;;6213400;23;20140;-68
2023/12/16 13:07:53;;;;;;;3.00;0.90;;;8.50;99.90;;;;;;6213386;23;20019;-69
2023/12/16 13:10:18;;;;;;;1.65;0.40;;;8.50;99.90;;;;;;6185662;23;20016;-70
2023/12/16 13:12:44;;;;;;;1.00;0.88;;;8.50;99.90;;;;;;6186052;23;20017;-70
2023/12/16 13:15:10;;;;;;;0.52;0.32;;;8.50;99.90;;;;;;6185461;23;20013;-69
2023/12/16 13:17:35;;;;;;;5.32;2.13;;;8.50;99.90;;;;;;6212940;23;20324;-69
2023/12/16 13:20:01;;;;;;;1.23;0.70;;;8.50;99.90;;;;;;6186809;23;20484;-70
2023/12/16 13:22:26;;;;;;;0.68;0.52;;;8.50;99.90;;;;;;6185441;23;20051;-68
2023/12/16 13:24:52;;;;;;;0.85;0.85;;;8.50;99.90;;;;;;6211502;23;20020;-68
2023/12/16 13:27:22;;;;;;;0.55;0.55;;;8.50;99.90;;;;;;6186107;23;20016;-69
2023/12/16 13:29:48;;;;;;;0.63;0.63;;;8.60;99.90;;;;;;6211471;23;20490;-69
2023/12/16 13:32:13;;;;;;;2.15;0.95;;;8.60;99.90;;;;;;6183804;23;20017;-69
2023/12/16 13:34:40;;;;;;;2.78;1.65;;;8.60;99.90;;;;;;6213405;23;20444;-71
2023/12/16 13:37:06;;;;;;;0.15;0.15;;;8.60;99.90;;;;;;6186785;23;20016;-69
2023/12/16 13:39:32;;;;;;;0.85;0.85;;;8.60;99.90;;;;;;6213198;23;20023;-69
2023/12/16 13:41:57;;;;;;;0.50;0.35;;;8.60;99.90;;;;;;6215344;23;20051;-68
2023/12/16 13:44:23;;;;;;;0.45;0.20;;;8.60;99.90;;;;;;6187634;23;20066;-68
2023/12/16 13:46:48;;;;;;;0.38;0.38;;;8.60;99.90;;;;;;6188174;23;20095;-69
2023/12/16 13:49:14;;;;;;;1.17;0.50;;;8.60;99.90;;;;;;6187142;23;20544;-70
2023/12/16 13:51:39;;;;;;;0.80;0.30;;;8.70;99.90;;;;;;6185852;23;20098;-70
2023/12/16 13:54:05;;;;;;;1.45;0.57;;;8.60;99.90;;;;;;6212849;23;20021;-73
2023/12/16 13:56:31;;;;;;;0.75;0.52;;;8.70;99.90;;;;;;6214394;23;20008;-68
2023/12/16 13:58:57;;;;;;;1.27;0.55;;;8.70;99.90;;;;;;6213871;23;20047;-68
2023/12/16 14:01:23;;;;;;;1.48;0.82;;;8.70;99.90;;;;;;6188463;23;20013;-69
2023/12/16 14:03:49;;;;;;;0.70;0.70;;;8.60;99.90;;;;;;6187025;23;20348;-68
2023/12/16 14:06:15;;;;;;;0.50;0.50;;;8.70;99.90;;;;;;6187465;23;20016;-71
2023/12/16 14:08:40;;;;;;;3.50;2.75;;;8.70;99.90;;;;;;6185133;23;20024;-71
2023/12/16 14:11:06;;;;;;;0.93;0.77;;;8.70;99.90;;;;;;6213785;23;20507;-69
2023/12/16 14:13:31;;;;;;;0.73;0.73;;;8.70;99.90;;;;;;6181388;23;20021;-70
2023/12/16 14:15:57;;;;;;;2.00;1.17;;;8.70;99.90;;;;;;6186225;23;20024;-68
2023/12/16 14:18:23;;;;;;;3.08;0.47;;;8.70;99.90;;;;;;6185652;23;20027;-71
2023/12/16 14:20:49;;;;;;;1.02;0.55;;;8.70;99.90;;;;;;6214002;23;20012;-71
2023/12/16 14:23:15;;;;;;;0.65;0.65;;;8.70;99.90;;;;;;6185770;23;20040;-69
2023/12/16 14:25:41;;;;;;;0.77;0.77;;;8.70;99.90;;;;;;6186856;23;20012;-70
2023/12/16 14:28:06;;;;;;;0.70;0.65;;;8.70;99.90;;;;;;6213673;23;20436;-70
2023/12/16 14:30:32;;;;;;;2.20;1.27;;;8.70;99.90;;;;;;6188086;23;20021;-70
2023/12/16 14:32:58;;;;;;;3.03;0.98;;;8.70;99.90;;;;;;6214614;23;20024;-69
2023/12/16 14:35:23;;;;;;;1.40;1.15;;;8.70;99.90;;;;;;6183902;23;20016;-68
2023/12/16 14:37:49;;;;;;;1.20;0.73;;;8.70;99.90;;;;;;6187300;23;20138;-69
2023/12/16 14:40:15;;;;;;;1.40;0.50;;;8.80;99.90;;;;;;6186975;23;20104;-70
2023/12/16 14:42:40;;;;;;;1.35;1.00;;;8.70;99.90;;;;;;6161480;23;20440;-72
2023/12/16 14:45:06;;;;;;;0.47;0.47;;;8.70;99.90;;;;;;6181901;23;20016;-70
2023/12/16 14:47:32;;;;;;;0.98;0.32;;;8.70;99.90;;;;;;6185350;23;20009;-68
2023/12/16 14:49:57;;;;;;;0.82;0.50;;;8.70;99.90;;;;;;6186349;23;20062;-70
2023/12/16 14:52:23;;;;;;;1.02;0.63;;;8.70;99.90;;;;;;6184542;23;20405;-69